sensor_id;sensor_type;location;lat;lon;timestamp;temperature;humidity
20319;DHT22;10317;47.254;11.314;2023-11-22T00:00:28;6.50;99.90
20319;DHT22;10317;47.254;11.314;2023-11-22T00:02:54;6.40;99.90
20319;DHT22;10317;47.254;11.314;2023-11-22T00:05:19;6.50;99.90
20319;DHT22;10317;47.254;11.314;2023-11-22T00:07:45;6.50;99.90
20319;DHT22;10317;47.254;11.314;2023-11-22T00:10:11;6.40;99.90
20319;DHT22;10317;47.254;11.314;2023-11-22T00:12:36;6.50;99.90
20319;DHT22;10317;47.254;11.314;2023-11-22T00:15:04;6.40;99.90
20319;DHT22;10317;47.254;11.314;2023-11-22T00:17:32;6.40;99.90
20319;DHT22;10317;47.254;11.314;2023-11-22T00:19:58;6.40;99.90
20319;DHT22;10317;47.254;11.314;2023-11-22T00:22:28;6.40;99.90
20319;DHT22;10317;47.254;11.314;2023-11-22T00:24:54;6.40;99.90
20319;DHT22;10317;47.254;11.314;2023-11-22T00:27:19;6.40;99.90
20319;DHT22;10317;47.254;11.314;2023-11-22T00:29:45;6.40;99.90
20319;DHT22;10317;47.254;11.314;2023-11-22T00:32:12;6.40;99.90
20319;DHT22;10317;47.254;11.314;2023-11-22T00:34:37;6.40;99.90
20319;DHT22;10317;47.254;11.314;2023-11-22T00:37:03;6.40;99.90
20319;DHT22;10317;47.254;11.314;2023-11-22T00:39:29;6.30;99.90
20319;DHT22;10317;47.254;11.314;2023-11-22T00:41:54;6.40;99.90
20319;DHT22;10317;47.254;11.314;2023-11-22T00:44:21;6.40;99.90
20319;DHT22;10317;47.254;11.314;2023-11-22T00:46:47;6.40;99.90
20319;DHT22;10317;47.254;11.314;2023-11-22T00:49:12;6.40;99.90
20319;DHT22;10317;47.254;11.314;2023-11-22T00:51:38;6.30;99.90
20319;DHT22;10317;47.254;11.314;2023-11-22T00:54:04;6.40;99.90
20319;DHT22;10317;47.254;11.314;2023-11-22T00:56:30;6.40;99.90
20319;DHT22;10317;47.254;11.314;2023-11-22T00:58:56;6.30;99.90
20319;DHT22;10317;47.254;11.314;2023-11-22T01:01:27;6.30;99.90
20319;DHT22;10317;47.254;11.314;2023-11-22T01:03:54;6.30;99.90
20319;DHT22;10317;47.254;11.314;2023-11-22T01:06:20;6.30;99.90
20319;DHT22;10317;47.254;11.314;2023-11-22T01:08:45;6.30;99.90
20319;DHT22;10317;47.254;11.314;2023-11-22T01:11:13;6.30;99.90
20319;DHT22;10317;47.254;11.314;2023-11-22T01:13:39;6.30;99.90
20319;DHT22;10317;47.254;11.314;2023-11-22T01:16:09;6.30;99.90
20319;DHT22;10317;47.254;11.314;2023-11-22T01:18:35;6.30;99.90
20319;DHT22;10317;47.254;11.314;2023-11-22T01:21:01;6.30;99.90
20319;DHT22;10317;47.254;11.314;2023-11-22T01:23:28;6.30;99.90
20319;DHT22;10317;47.254;11.314;2023-11-22T01:25:54;6.30;99.90
20319;DHT22;10317;47.254;11.314;2023-11-22T01:28:20;6.30;99.90
20319;DHT22;10317;47.254;11.314;2023-11-22T01:30:45;6.30;99.90
20319;DHT22;10317;47.254;11.314;2023-11-22T01:33:12;6.30;99.90
20319;DHT22;10317;47.254;11.314;2023-11-22T01:35:38;6.20;99.90
20319;DHT22;10317;47.254;11.314;2023-11-22T01:38:04;6.30;99.90
20319;DHT22;10317;47.254;11.314;2023-11-22T01:40:31;6.20;99.90
20319;DHT22;10317;47.254;11.314;2023-11-22T01:43:00;6.20;99.90
20319;DHT22;10317;47.254;11.314;2023-11-22T01:45:28;6.20;99.90
20319;DHT22;10317;47.254;11.314;2023-11-22T01:47:54;6.20;99.90
20319;DHT22;10317;47.254;11.314;2023-11-22T01:50:20;6.20;99.90
20319;DHT22;10317;47.254;11.314;2023-11-22T01:52:46;6.20;99.90
20319;DHT22;10317;47.254;11.314;2023-11-22T01:55:12;6.20;99.90
20319;DHT22;10317;47.254;11.314;2023-11-22T01:57:39;6.20;99.90
20319;DHT22;10317;47.254;11.314;2023-11-22T02:00:05;6.20;99.90
20319;DHT22;10317;47.254;11.314;2023-11-22T02:02:39;6.20;99.90
20319;DHT22;10317;47.254;11.314;2023-11-22T02:05:05;6.20;99.90
20319;DHT22;10317;47.254;11.314;2023-11-22T02:07:31;6.10;99.90
20319;DHT22;10317;47.254;11.314;2023-11-22T02:09:58;6.20;99.90
20319;DHT22;10317;47.254;11.314;2023-11-22T02:12:23;6.20;99.90
20319;DHT22;10317;47.254;11.314;2023-11-22T02:14:49;6.10;99.90
20319;DHT22;10317;47.254;11.314;2023-11-22T02:17:16;6.10;99.90
20319;DHT22;10317;47.254;11.314;2023-11-22T02:19:43;6.10;99.90
20319;DHT22;10317;47.254;11.314;2023-11-22T02:22:08;6.10;99.90
20319;DHT22;10317;47.254;11.314;2023-11-22T02:24:34;6.10;99.90
20319;DHT22;10317;47.254;11.314;2023-11-22T02:27:00;6.10;99.90
20319;DHT22;10317;47.254;11.314;2023-11-22T02:29:26;6.10;99.90
20319;DHT22;10317;47.254;11.314;2023-11-22T02:31:52;6.10;99.90
20319;DHT22;10317;47.254;11.314;2023-11-22T02:34:18;6.10;99.90
20319;DHT22;10317;47.254;11.314;2023-11-22T02:36:45;6.10;99.90
20319;DHT22;10317;47.254;11.314;2023-11-22T02:39:10;6.10;99.90
20319;DHT22;10317;47.254;11.314;2023-11-22T02:41:36;6.10;99.90
20319;DHT22;10317;47.254;11.314;2023-11-22T02:44:02;6.10;99.90
20319;DHT22;10317;47.254;11.314;2023-11-22T02:46:28;6.10;99.90
20319;DHT22;10317;47.254;11.314;2023-11-22T02:48:56;6.10;99.90
20319;DHT22;10317;47.254;11.314;2023-11-22T02:51:22;6.00;99.90
20319;DHT22;10317;47.254;11.314;2023-11-22T02:53:48;6.10;99.90
20319;DHT22;10317;47.254;11.314;2023-11-22T02:56:15;6.00;99.90
20319;DHT22;10317;47.254;11.314;2023-11-22T02:58:41;6.00;99.90
20319;DHT22;10317;47.254;11.314;2023-11-22T03:01:07;6.00;99.90
20319;DHT22;10317;47.254;11.314;2023-11-22T03:03:33;6.00;99.90
20319;DHT22;10317;47.254;11.314;2023-11-22T03:05:59;6.00;99.90
20319;DHT22;10317;47.254;11.314;2023-11-22T03:08:25;6.00;99.90
20319;DHT22;10317;47.254;11.314;2023-11-22T03:10:50;6.00;99.90
20319;DHT22;10317;47.254;11.314;2023-11-22T03:13:17;6.00;99.90
20319;DHT22;10317;47.254;11.314;2023-11-22T03:15:44;6.00;99.90
20319;DHT22;10317;47.254;11.314;2023-11-22T03:18:09;6.00;99.90
20319;DHT22;10317;47.254;11.314;2023-11-22T03:20:36;6.00;99.90
20319;DHT22;10317;47.254;11.314;2023-11-22T03:23:03;6.00;99.90
20319;DHT22;10317;47.254;11.314;2023-11-22T03:25:29;6.00;99.90
20319;DHT22;10317;47.254;11.314;2023-11-22T03:27:55;6.00;99.90
20319;DHT22;10317;47.254;11.314;2023-11-22T03:30:21;6.00;99.90
20319;DHT22;10317;47.254;11.314;2023-11-22T03:32:47;6.00;99.90
20319;DHT22;10317;47.254;11.314;2023-11-22T03:35:12;6.10;99.90
20319;DHT22;10317;47.254;11.314;2023-11-22T03:37:38;6.10;99.90
20319;DHT22;10317;47.254;11.314;2023-11-22T03:40:04;6.10;99.90
20319;DHT22;10317;47.254;11.314;2023-11-22T03:42:30;6.10;99.90
20319;DHT22;10317;47.254;11.314;2023-11-22T03:44:56;6.10;99.90
20319;DHT22;10317;47.254;11.314;2023-11-22T03:47:25;6.10;99.90
20319;DHT22;10317;47.254;11.314;2023-11-22T03:49:51;6.10;99.90
20319;DHT22;10317;47.254;11.314;2023-11-22T03:52:16;6.10;99.90
20319;DHT22;10317;47.254;11.314;2023-11-22T03:54:42;6.10;99.90
20319;DHT22;10317;47.254;11.314;2023-11-22T03:57:08;6.10;99.90
20319;DHT22;10317;47.254;11.314;2023-11-22T03:59:35;6.20;99.90
20319;DHT22;10317;47.254;11.314;2023-11-22T04:02:01;6.20;99.90
20319;DHT22;10317;47.254;11.314;2023-11-22T04:04:26;6.10;99.90
20319;DHT22;10317;47.254;11.314;2023-11-22T04:06:52;6.10;99.90
20319;DHT22;10317;47.254;11.314;2023-11-22T04:09:18;6.20;99.90
20319;DHT22;10317;47.254;11.314;2023-11-22T04:11:46;6.20;99.90
20319;DHT22;10317;47.254;11.314;2023-11-22T04:14:12;6.20;99.90
20319;DHT22;10317;47.254;11.314;2023-11-22T04:16:38;6.10;99.90
20319;DHT22;10317;47.254;11.314;2023-11-22T04:19:04;6.20;99.90
20319;DHT22;10317;47.254;11.314;2023-11-22T04:21:30;6.10;99.90
20319;DHT22;10317;47.254;11.314;2023-11-22T04:23:55;6.20;99.90
20319;DHT22;10317;47.254;11.314;2023-11-22T04:26:21;6.20;99.90
20319;DHT22;10317;47.254;11.314;2023-11-22T04:28:47;6.20;99.90
20319;DHT22;10317;47.254;11.314;2023-11-22T04:31:13;6.10;99.90
20319;DHT22;10317;47.254;11.314;2023-11-22T04:33:38;6.10;99.90
20319;DHT22;10317;47.254;11.314;2023-11-22T04:36:04;6.10;99.90
20319;DHT22;10317;47.254;11.314;2023-11-22T04:38:30;6.10;99.90
20319;DHT22;10317;47.254;11.314;2023-11-22T04:40:56;6.10;99.90
20319;DHT22;10317;47.254;11.314;2023-11-22T04:43:22;6.10;99.90
20319;DHT22;10317;47.254;11.314;2023-11-22T04:45:48;6.10;99.90
20319;DHT22;10317;47.254;11.314;2023-11-22T04:48:15;6.10;99.90
20319;DHT22;10317;47.254;11.314;2023-11-22T04:50:41;6.10;99.90
20319;DHT22;10317;47.254;11.314;2023-11-22T04:53:08;6.10;99.90
20319;DHT22;10317;47.254;11.314;2023-11-22T04:55:34;6.10;99.90
20319;DHT22;10317;47.254;11.314;2023-11-22T04:58:00;6.10;99.90
20319;DHT22;10317;47.254;11.314;2023-11-22T05:00:25;6.10;99.90
20319;DHT22;10317;47.254;11.314;2023-11-22T05:02:51;6.00;99.90
20319;DHT22;10317;47.254;11.314;2023-11-22T05:05:16;6.00;99.90
20319;DHT22;10317;47.254;11.314;2023-11-22T05:07:42;6.00;99.90
20319;DHT22;10317;47.254;11.314;2023-11-22T05:10:10;6.00;99.90
20319;DHT22;10317;47.254;11.314;2023-11-22T05:12:35;6.00;99.90
20319;DHT22;10317;47.254;11.314;2023-11-22T05:15:02;6.00;99.90
20319;DHT22;10317;47.254;11.314;2023-11-22T05:17:28;5.90;99.90
20319;DHT22;10317;47.254;11.314;2023-11-22T05:19:53;5.90;99.90
20319;DHT22;10317;47.254;11.314;2023-11-22T05:22:19;5.90;99.90
20319;DHT22;10317;47.254;11.314;2023-11-22T05:24:45;5.90;99.90
20319;DHT22;10317;47.254;11.314;2023-11-22T05:27:11;5.90;99.90
20319;DHT22;10317;47.254;11.314;2023-11-22T05:29:37;5.90;99.90
20319;DHT22;10317;47.254;11.314;2023-11-22T05:32:03;5.90;99.90
20319;DHT22;10317;47.254;11.314;2023-11-22T05:34:30;5.90;99.90
20319;DHT22;10317;47.254;11.314;2023-11-22T05:36:55;5.90;99.90
20319;DHT22;10317;47.254;11.314;2023-11-22T05:39:21;5.90;99.90
20319;DHT22;10317;47.254;11.314;2023-11-22T05:41:50;5.90;99.90
20319;DHT22;10317;47.254;11.314;2023-11-22T05:44:16;5.90;99.90
20319;DHT22;10317;47.254;11.314;2023-11-22T05:46:42;5.90;99.90
20319;DHT22;10317;47.254;11.314;2023-11-22T05:49:07;5.90;99.90
20319;DHT22;10317;47.254;11.314;2023-11-22T05:51:33;5.90;99.90
20319;DHT22;10317;47.254;11.314;2023-11-22T05:53:59;5.90;99.90
20319;DHT22;10317;47.254;11.314;2023-11-22T05:56:26;5.90;99.90
20319;DHT22;10317;47.254;11.314;2023-11-22T05:58:51;5.90;99.90
20319;DHT22;10317;47.254;11.314;2023-11-22T06:01:17;5.90;99.90
20319;DHT22;10317;47.254;11.314;2023-11-22T06:03:43;5.80;99.90
20319;DHT22;10317;47.254;11.314;2023-11-22T06:06:08;5.90;99.90
20319;DHT22;10317;47.254;11.314;2023-11-22T06:08:34;5.90;99.90
20319;DHT22;10317;47.254;11.314;2023-11-22T06:11:00;5.90;99.90
20319;DHT22;10317;47.254;11.314;2023-11-22T06:13:28;5.90;99.90
20319;DHT22;10317;47.254;11.314;2023-11-22T06:15:54;5.90;99.90
20319;DHT22;10317;47.254;11.314;2023-11-22T06:18:20;5.90;99.90
20319;DHT22;10317;47.254;11.314;2023-11-22T06:20:46;5.80;99.90
20319;DHT22;10317;47.254;11.314;2023-11-22T06:23:13;5.80;99.90
20319;DHT22;10317;47.254;11.314;2023-11-22T06:25:39;5.80;99.90
20319;DHT22;10317;47.254;11.314;2023-11-22T06:28:08;5.80;99.90
20319;DHT22;10317;47.254;11.314;2023-11-22T06:30:34;5.80;99.90
20319;DHT22;10317;47.254;11.314;2023-11-22T06:33:00;5.80;99.90
20319;DHT22;10317;47.254;11.314;2023-11-22T06:35:26;5.80;99.90
20319;DHT22;10317;47.254;11.314;2023-11-22T06:37:52;5.80;99.90
20319;DHT22;10317;47.254;11.314;2023-11-22T06:40:18;5.80;99.90
20319;DHT22;10317;47.254;11.314;2023-11-22T06:42:46;5.80;99.90
20319;DHT22;10317;47.254;11.314;2023-11-22T06:45:12;5.80;99.90
20319;DHT22;10317;47.254;11.314;2023-11-22T06:47:41;5.80;99.90
20319;DHT22;10317;47.254;11.314;2023-11-22T06:50:07;5.80;99.90
20319;DHT22;10317;47.254;11.314;2023-11-22T06:52:38;5.80;99.90
20319;DHT22;10317;47.254;11.314;2023-11-22T06:55:04;5.80;99.90
20319;DHT22;10317;47.254;11.314;2023-11-22T06:57:30;5.80;99.90
20319;DHT22;10317;47.254;11.314;2023-11-22T06:59:56;5.80;99.90
20319;DHT22;10317;47.254;11.314;2023-11-22T07:02:22;5.80;99.90
20319;DHT22;10317;47.254;11.314;2023-11-22T07:04:48;5.90;99.90
20319;DHT22;10317;47.254;11.314;2023-11-22T07:07:14;5.90;99.90
20319;DHT22;10317;47.254;11.314;2023-11-22T07:09:43;5.90;99.90
20319;DHT22;10317;47.254;11.314;2023-11-22T07:12:09;5.90;99.90
20319;DHT22;10317;47.254;11.314;2023-11-22T07:14:36;5.90;99.90
20319;DHT22;10317;47.254;11.314;2023-11-22T07:17:02;5.90;99.90
20319;DHT22;10317;47.254;11.314;2023-11-22T07:19:28;5.90;99.90
20319;DHT22;10317;47.254;11.314;2023-11-22T07:21:54;6.00;99.90
20319;DHT22;10317;47.254;11.314;2023-11-22T07:24:20;6.00;99.90
20319;DHT22;10317;47.254;11.314;2023-11-22T07:26:46;6.00;99.90
20319;DHT22;10317;47.254;11.314;2023-11-22T07:29:12;6.00;99.90
20319;DHT22;10317;47.254;11.314;2023-11-22T07:31:39;6.10;99.90
20319;DHT22;10317;47.254;11.314;2023-11-22T07:34:05;6.10;99.90
20319;DHT22;10317;47.254;11.314;2023-11-22T07:36:31;6.10;99.90
20319;DHT22;10317;47.254;11.314;2023-11-22T07:38:57;6.20;99.90
20319;DHT22;10317;47.254;11.314;2023-11-22T07:41:23;6.20;99.90
20319;DHT22;10317;47.254;11.314;2023-11-22T07:43:48;6.20;99.90
20319;DHT22;10317;47.254;11.314;2023-11-22T07:46:15;6.20;99.90
20319;DHT22;10317;47.254;11.314;2023-11-22T07:48:43;6.20;99.90
20319;DHT22;10317;47.254;11.314;2023-11-22T07:51:08;6.20;99.90
20319;DHT22;10317;47.254;11.314;2023-11-22T07:53:34;6.30;99.90
20319;DHT22;10317;47.254;11.314;2023-11-22T07:56:03;6.30;99.90
20319;DHT22;10317;47.254;11.314;2023-11-22T07:58:34;6.30;99.90
20319;DHT22;10317;47.254;11.314;2023-11-22T08:01:00;6.30;99.90
20319;DHT22;10317;47.254;11.314;2023-11-22T08:03:28;6.40;99.90
20319;DHT22;10317;47.254;11.314;2023-11-22T08:05:54;6.30;99.90
20319;DHT22;10317;47.254;11.314;2023-11-22T08:08:21;6.30;99.90
20319;DHT22;10317;47.254;11.314;2023-11-22T08:10:48;6.30;99.90
20319;DHT22;10317;47.254;11.314;2023-11-22T08:13:15;6.30;99.90
20319;DHT22;10317;47.254;11.314;2023-11-22T08:15:41;6.30;99.90
20319;DHT22;10317;47.254;11.314;2023-11-22T08:18:07;6.40;99.90
20319;DHT22;10317;47.254;11.314;2023-11-22T08:20:33;6.30;99.90
20319;DHT22;10317;47.254;11.314;2023-11-22T08:22:58;6.40;99.90
20319;DHT22;10317;47.254;11.314;2023-11-22T08:25:26;6.40;99.90
20319;DHT22;10317;47.254;11.314;2023-11-22T08:27:51;6.40;99.90
20319;DHT22;10317;47.254;11.314;2023-11-22T08:30:19;6.40;99.90
20319;DHT22;10317;47.254;11.314;2023-11-22T08:32:46;6.40;99.90
20319;DHT22;10317;47.254;11.314;2023-11-22T08:35:19;6.40;99.90
20319;DHT22;10317;47.254;11.314;2023-11-22T08:37:45;6.50;99.90
20319;DHT22;10317;47.254;11.314;2023-11-22T08:40:12;6.50;99.90
20319;DHT22;10317;47.254;11.314;2023-11-22T08:42:41;6.50;99.90
20319;DHT22;10317;47.254;11.314;2023-11-22T08:45:08;6.50;99.90
20319;DHT22;10317;47.254;11.314;2023-11-22T08:47:34;6.50;99.90
20319;DHT22;10317;47.254;11.314;2023-11-22T08:50:00;6.50;99.90
20319;DHT22;10317;47.254;11.314;2023-11-22T08:52:29;6.60;99.90
20319;DHT22;10317;47.254;11.314;2023-11-22T08:54:56;6.60;99.90
20319;DHT22;10317;47.254;11.314;2023-11-22T08:57:22;6.60;99.90
20319;DHT22;10317;47.254;11.314;2023-11-22T08:59:47;6.60;99.90
20319;DHT22;10317;47.254;11.314;2023-11-22T09:02:14;6.70;99.90
20319;DHT22;10317;47.254;11.314;2023-11-22T09:04:40;6.70;99.90
20319;DHT22;10317;47.254;11.314;2023-11-22T09:07:07;6.70;99.90
20319;DHT22;10317;47.254;11.314;2023-11-22T09:09:35;6.80;99.90
20319;DHT22;10317;47.254;11.314;2023-11-22T09:12:01;6.80;99.90
20319;DHT22;10317;47.254;11.314;2023-11-22T09:14:27;6.80;99.90
20319;DHT22;10317;47.254;11.314;2023-11-22T09:16:53;6.90;99.90
20319;DHT22;10317;47.254;11.314;2023-11-22T09:19:22;6.90;99.90
20319;DHT22;10317;47.254;11.314;2023-11-22T09:21:48;7.00;99.90
20319;DHT22;10317;47.254;11.314;2023-11-22T09:24:14;7.00;99.90
20319;DHT22;10317;47.254;11.314;2023-11-22T09:26:40;7.00;99.90
20319;DHT22;10317;47.254;11.314;2023-11-22T09:29:07;7.00;99.90
20319;DHT22;10317;47.254;11.314;2023-11-22T09:31:32;7.00;99.90
20319;DHT22;10317;47.254;11.314;2023-11-22T09:33:58;6.90;99.90
20319;DHT22;10317;47.254;11.314;2023-11-22T09:36:24;6.80;99.90
20319;DHT22;10317;47.254;11.314;2023-11-22T09:38:53;6.80;99.90
20319;DHT22;10317;47.254;11.314;2023-11-22T09:41:19;6.80;99.90
20319;DHT22;10317;47.254;11.314;2023-11-22T09:43:46;6.80;99.90
20319;DHT22;10317;47.254;11.314;2023-11-22T09:46:15;6.80;99.90
20319;DHT22;10317;47.254;11.314;2023-11-22T09:48:43;6.90;99.90
20319;DHT22;10317;47.254;11.314;2023-11-22T09:56:09;6.80;99.90
20319;DHT22;10317;47.254;11.314;2023-11-22T09:58:40;6.80;99.90
20319;DHT22;10317;47.254;11.314;2023-11-22T10:01:13;6.70;99.90
20319;DHT22;10317;47.254;11.314;2023-11-22T10:03:39;6.70;99.90
20319;DHT22;10317;47.254;11.314;2023-11-22T10:06:06;6.70;99.90
20319;DHT22;10317;47.254;11.314;2023-11-22T10:08:32;6.70;99.90
20319;DHT22;10317;47.254;11.314;2023-11-22T10:10:59;6.70;99.90
20319;DHT22;10317;47.254;11.314;2023-11-22T10:13:25;6.60;99.90
20319;DHT22;10317;47.254;11.314;2023-11-22T10:15:52;6.70;99.90
20319;DHT22;10317;47.254;11.314;2023-11-22T10:18:21;6.60;99.90
20319;DHT22;10317;47.254;11.314;2023-11-22T10:20:48;6.60;99.90
20319;DHT22;10317;47.254;11.314;2023-11-22T10:23:18;6.60;99.90
20319;DHT22;10317;47.254;11.314;2023-11-22T10:25:52;6.60;99.90
20319;DHT22;10317;47.254;11.314;2023-11-22T10:28:21;6.70;99.90
20319;DHT22;10317;47.254;11.314;2023-11-22T10:30:50;6.90;99.90
20319;DHT22;10317;47.254;11.314;2023-11-22T10:33:17;7.00;99.90
20319;DHT22;10317;47.254;11.314;2023-11-22T10:35:50;7.10;99.90
20319;DHT22;10317;47.254;11.314;2023-11-22T10:38:17;7.10;99.90
20319;DHT22;10317;47.254;11.314;2023-11-22T10:40:43;7.20;99.90
20319;DHT22;10317;47.254;11.314;2023-11-22T10:43:15;7.30;99.90
20319;DHT22;10317;47.254;11.314;2023-11-22T10:45:41;7.40;99.90
20319;DHT22;10317;47.254;11.314;2023-11-22T10:48:15;7.60;99.90
20319;DHT22;10317;47.254;11.314;2023-11-22T10:50:44;7.90;99.90
20319;DHT22;10317;47.254;11.314;2023-11-22T10:53:16;8.10;99.90
20319;DHT22;10317;47.254;11.314;2023-11-22T10:58:14;8.40;99.90
20319;DHT22;10317;47.254;11.314;2023-11-22T11:00:41;8.70;99.90
20319;DHT22;10317;47.254;11.314;2023-11-22T11:03:14;9.10;99.90
20319;DHT22;10317;47.254;11.314;2023-11-22T11:05:50;9.70;99.90
20319;DHT22;10317;47.254;11.314;2023-11-22T11:08:17;10.20;99.90
20319;DHT22;10317;47.254;11.314;2023-11-22T11:10:46;10.10;99.90
20319;DHT22;10317;47.254;11.314;2023-11-22T11:13:12;9.90;99.90
20319;DHT22;10317;47.254;11.314;2023-11-22T11:15:42;9.80;99.90
20319;DHT22;10317;47.254;11.314;2023-11-22T11:18:14;9.70;99.90
20319;DHT22;10317;47.254;11.314;2023-11-22T11:20:54;9.50;99.90
20319;DHT22;10317;47.254;11.314;2023-11-22T11:23:28;9.30;99.90
20319;DHT22;10317;47.254;11.314;2023-11-22T11:26:08;9.10;99.90
20319;DHT22;10317;47.254;11.314;2023-11-22T11:28:47;8.90;99.90
20319;DHT22;10317;47.254;11.314;2023-11-22T11:31:14;8.70;99.90
20319;DHT22;10317;47.254;11.314;2023-11-22T11:36:31;8.40;99.90
20319;DHT22;10317;47.254;11.314;2023-11-22T11:39:08;8.30;99.90
20319;DHT22;10317;47.254;11.314;2023-11-22T11:41:41;8.40;99.90
20319;DHT22;10317;47.254;11.314;2023-11-22T11:44:08;8.40;99.90
20319;DHT22;10317;47.254;11.314;2023-11-22T11:46:36;8.50;99.90
20319;DHT22;10317;47.254;11.314;2023-11-22T11:49:06;8.50;99.90
20319;DHT22;10317;47.254;11.314;2023-11-22T11:51:35;8.50;99.90
20319;DHT22;10317;47.254;11.314;2023-11-22T11:54:01;8.50;99.90
20319;DHT22;10317;47.254;11.314;2023-11-22T11:56:27;8.50;99.90
20319;DHT22;10317;47.254;11.314;2023-11-22T11:58:56;8.50;99.90
20319;DHT22;10317;47.254;11.314;2023-11-22T12:01:24;9.00;99.90
20319;DHT22;10317;47.254;11.314;2023-11-22T12:03:52;9.40;99.90
20319;DHT22;10317;47.254;11.314;2023-11-22T12:06:18;9.90;99.90
20319;DHT22;10317;47.254;11.314;2023-11-22T12:08:47;10.30;99.90
20319;DHT22;10317;47.254;11.314;2023-11-22T12:11:14;11.00;99.90
20319;DHT22;10317;47.254;11.314;2023-11-22T12:13:41;11.60;99.90
20319;DHT22;10317;47.254;11.314;2023-11-22T12:16:14;12.20;99.90
20319;DHT22;10317;47.254;11.314;2023-11-22T12:18:47;12.90;99.90
20319;DHT22;10317;47.254;11.314;2023-11-22T12:21:14;13.50;99.90
20319;DHT22;10317;47.254;11.314;2023-11-22T12:23:42;13.50;98.70
20319;DHT22;10317;47.254;11.314;2023-11-22T12:26:19;13.30;97.70
20319;DHT22;10317;47.254;11.314;2023-11-22T12:28:46;13.50;99.20
20319;DHT22;10317;47.254;11.314;2023-11-22T12:31:16;13.40;97.40
20319;DHT22;10317;47.254;11.314;2023-11-22T12:33:43;13.00;97.20
20319;DHT22;10317;47.254;11.314;2023-11-22T12:36:09;12.30;97.00
20319;DHT22;10317;47.254;11.314;2023-11-22T12:38:36;11.80;98.50
20319;DHT22;10317;47.254;11.314;2023-11-22T12:41:02;11.30;97.10
20319;DHT22;10317;47.254;11.314;2023-11-22T12:43:29;11.00;99.40
20319;DHT22;10317;47.254;11.314;2023-11-22T12:46:06;10.70;99.50
20319;DHT22;10317;47.254;11.314;2023-11-22T12:48:33;10.30;99.90
20319;DHT22;10317;47.254;11.314;2023-11-22T12:50:59;10.00;99.90
20319;DHT22;10317;47.254;11.314;2023-11-22T12:53:26;9.70;99.90
20319;DHT22;10317;47.254;11.314;2023-11-22T12:55:54;9.40;99.60
20319;DHT22;10317;47.254;11.314;2023-11-22T12:58:24;9.20;99.90
20319;DHT22;10317;47.254;11.314;2023-11-22T13:00:52;9.00;99.90
20319;DHT22;10317;47.254;11.314;2023-11-22T13:03:24;8.70;99.90
20319;DHT22;10317;47.254;11.314;2023-11-22T13:05:49;8.50;99.90
20319;DHT22;10317;47.254;11.314;2023-11-22T13:08:17;8.30;99.90
20319;DHT22;10317;47.254;11.314;2023-11-22T13:10:44;8.10;99.90
20319;DHT22;10317;47.254;11.314;2023-11-22T13:13:10;7.90;99.90
20319;DHT22;10317;47.254;11.314;2023-11-22T13:15:36;7.90;99.90
20319;DHT22;10317;47.254;11.314;2023-11-22T13:18:02;8.00;99.90
20319;DHT22;10317;47.254;11.314;2023-11-22T13:20:27;8.20;99.90
20319;DHT22;10317;47.254;11.314;2023-11-22T13:22:54;8.20;99.90
20319;DHT22;10317;47.254;11.314;2023-11-22T13:25:21;8.10;99.90
20319;DHT22;10317;47.254;11.314;2023-11-22T13:27:47;8.20;99.90
20319;DHT22;10317;47.254;11.314;2023-11-22T13:30:14;8.40;99.90
20319;DHT22;10317;47.254;11.314;2023-11-22T13:32:40;8.50;99.90
20319;DHT22;10317;47.254;11.314;2023-11-22T13:35:08;8.60;99.90
20319;DHT22;10317;47.254;11.314;2023-11-22T13:37:46;8.60;99.90
20319;DHT22;10317;47.254;11.314;2023-11-22T13:40:15;8.50;99.90
20319;DHT22;10317;47.254;11.314;2023-11-22T13:42:45;8.40;99.90
20319;DHT22;10317;47.254;11.314;2023-11-22T13:45:12;8.30;99.90
20319;DHT22;10317;47.254;11.314;2023-11-22T13:47:46;8.20;99.90
20319;DHT22;10317;47.254;11.314;2023-11-22T13:50:13;8.10;99.90
20319;DHT22;10317;47.254;11.314;2023-11-22T13:52:54;8.00;99.90
20319;DHT22;10317;47.254;11.314;2023-11-22T13:55:20;7.90;99.90
20319;DHT22;10317;47.254;11.314;2023-11-22T13:57:53;7.90;99.90
20319;DHT22;10317;47.254;11.314;2023-11-22T14:00:20;7.90;99.90
20319;DHT22;10317;47.254;11.314;2023-11-22T14:02:55;7.80;99.90
20319;DHT22;10317;47.254;11.314;2023-11-22T14:05:26;7.80;99.90
20319;DHT22;10317;47.254;11.314;2023-11-22T14:07:52;7.80;99.90
20319;DHT22;10317;47.254;11.314;2023-11-22T14:10:19;7.80;99.90
20319;DHT22;10317;47.254;11.314;2023-11-22T14:12:48;7.90;99.90
20319;DHT22;10317;47.254;11.314;2023-11-22T14:15:14;7.90;99.90
20319;DHT22;10317;47.254;11.314;2023-11-22T14:17:40;8.00;99.90
20319;DHT22;10317;47.254;11.314;2023-11-22T14:20:10;8.10;99.90
20319;DHT22;10317;47.254;11.314;2023-11-22T14:22:37;8.10;99.90
20319;DHT22;10317;47.254;11.314;2023-11-22T14:25:03;8.00;99.90
20319;DHT22;10317;47.254;11.314;2023-11-22T14:27:33;8.00;99.90
20319;DHT22;10317;47.254;11.314;2023-11-22T14:29:59;7.90;99.90
20319;DHT22;10317;47.254;11.314;2023-11-22T14:32:25;7.80;99.90
20319;DHT22;10317;47.254;11.314;2023-11-22T14:34:51;7.70;99.90
20319;DHT22;10317;47.254;11.314;2023-11-22T14:37:18;7.60;99.90
20319;DHT22;10317;47.254;11.314;2023-11-22T14:39:45;7.50;99.90
20319;DHT22;10317;47.254;11.314;2023-11-22T14:42:10;7.30;99.90
20319;DHT22;10317;47.254;11.314;2023-11-22T14:44:37;7.20;99.90
20319;DHT22;10317;47.254;11.314;2023-11-22T14:47:03;7.10;99.90
20319;DHT22;10317;47.254;11.314;2023-11-22T14:49:34;7.00;99.90
20319;DHT22;10317;47.254;11.314;2023-11-22T14:52:00;7.00;99.90
20319;DHT22;10317;47.254;11.314;2023-11-22T14:54:27;6.90;99.90
20319;DHT22;10317;47.254;11.314;2023-11-22T14:56:53;6.90;99.90
20319;DHT22;10317;47.254;11.314;2023-11-22T14:59:21;6.80;99.90
20319;DHT22;10317;47.254;11.314;2023-11-22T15:01:47;6.80;99.90
20319;DHT22;10317;47.254;11.314;2023-11-22T15:04:13;6.80;99.90
20319;DHT22;10317;47.254;11.314;2023-11-22T15:06:40;6.70;99.90
20319;DHT22;10317;47.254;11.314;2023-11-22T15:09:06;6.60;99.90
20319;DHT22;10317;47.254;11.314;2023-11-22T15:11:36;6.60;99.90
20319;DHT22;10317;47.254;11.314;2023-11-22T15:14:03;6.60;99.90
20319;DHT22;10317;47.254;11.314;2023-11-22T15:16:29;6.50;99.90
20319;DHT22;10317;47.254;11.314;2023-11-22T15:18:56;6.50;99.90
20319;DHT22;10317;47.254;11.314;2023-11-22T15:21:22;6.40;99.90
20319;DHT22;10317;47.254;11.314;2023-11-22T15:23:48;6.30;99.90
20319;DHT22;10317;47.254;11.314;2023-11-22T15:26:13;6.30;99.90
20319;DHT22;10317;47.254;11.314;2023-11-22T15:28:39;6.30;99.90
20319;DHT22;10317;47.254;11.314;2023-11-22T15:31:05;6.30;99.90
20319;DHT22;10317;47.254;11.314;2023-11-22T15:33:31;6.20;99.90
20319;DHT22;10317;47.254;11.314;2023-11-22T15:35:57;6.20;99.90
20319;DHT22;10317;47.254;11.314;2023-11-22T15:38:22;6.20;99.90